»·PEaware :: DAL3061 KPHX-KTUS

DAL3061 :: KPHX-KTUS

FLIGHT INFORMATION

Flight Status: Arrived
Operator:
Delta Air Lines
More flights by this operator :: More flights under this callsign
Pilot: Marcus B. (1617)
Aircraft: MCDONNELL-DOUGLAS MD-82
(MD82)
More flights by this aircraft type
Origin: KPHX Phoenix Sky Harbor Intl
United States
Destination: KTUS Tucson Intl
United States
More flights between these airports :: More routes between these airports
Route: STRRM1 STRRM BASER DINGO DINGO5
File this flight plan on PilotEdge
Remarks:
Altitude:
(Current/Filed)
17,000ft
Speed:
(Current/Filed)
420kts
Departed: 27-Aug-20 06:22 PM
Arrived: 27-Aug-20 06:44 PM
Distance/Time
Traveled:
96nm/0:21
Distance/Time
To Go:
Arrived

Flight Plot

Page will automatically refresh every two minutes.

Flight plan parsing failed; only flown route is shown


Map Options




Map Legend


Flown Route
Filed Route
Departure Airport
Arrival Airport
Navaid (VOR, NDB)
Fix

Horizontal Profiles

Position Reports

Time Latitude Longitude Heading Altitude Ground
Speed
27-Aug-20 17:41 33.437872 -112.009410 102 1115ft 0kts
27-Aug-20 17:42 33.437872 -112.009410 102 1115ft 0kts
27-Aug-20 17:43 33.437872 -112.009410 102 1115ft 0kts
27-Aug-20 17:44 33.437872 -112.009410 102 1115ft 0kts
27-Aug-20 17:45 33.437872 -112.009410 102 1115ft 0kts
27-Aug-20 17:46 33.437872 -112.009410 102 1115ft 0kts
27-Aug-20 17:47 33.437872 -112.009410 102 1115ft 0kts
27-Aug-20 17:48 33.437872 -112.009410 102 1115ft 0kts
27-Aug-20 17:49 33.437872 -112.009410 102 1115ft 0kts
27-Aug-20 17:50 33.437872 -112.009410 102 1115ft 0kts
27-Aug-20 17:51 33.437872 -112.009410 102 1115ft 0kts
27-Aug-20 17:52 33.437872 -112.009410 102 1115ft 0kts
27-Aug-20 17:53 33.437872 -112.009410 102 1115ft 0kts
27-Aug-20 17:54 33.437872 -112.009410 102 1115ft 0kts
27-Aug-20 17:55 33.437872 -112.009410 102 1115ft 0kts
27-Aug-20 17:56 33.437872 -112.009410 102 1115ft 0kts
27-Aug-20 17:57 33.437872 -112.009410 102 1115ft 0kts
27-Aug-20 17:58 33.437872 -112.009410 102 1115ft 0kts
27-Aug-20 17:59 33.437872 -112.009410 102 1115ft 0kts
27-Aug-20 18:00 33.437872 -112.009410 102 1115ft 0kts
27-Aug-20 18:01 33.437872 -112.009410 102 1115ft 0kts
27-Aug-20 18:02 33.437872 -112.009410 102 1115ft 0kts
27-Aug-20 18:03 33.437872 -112.009410 102 1115ft 0kts
27-Aug-20 18:04 33.437872 -112.009410 102 1115ft 0kts
27-Aug-20 18:05 33.437872 -112.009410 102 1115ft 0kts
27-Aug-20 18:07 33.437872 -112.009410 102 1115ft 0kts
27-Aug-20 18:08 33.437872 -112.009410 102 1115ft 0kts
27-Aug-20 18:09 33.437872 -112.009410 102 1115ft 0kts
27-Aug-20 18:10 33.437872 -112.009410 102 1115ft 0kts
27-Aug-20 18:11 33.437872 -112.009410 102 1115ft 0kts
27-Aug-20 18:12 33.437876 -112.009779 69 1115ft 2kts
27-Aug-20 18:13 33.437456 -112.010184 4 1115ft 0kts
27-Aug-20 18:14 33.437413 -112.010070 316 1115ft 0kts
27-Aug-20 18:15 33.437413 -112.010070 316 1115ft 0kts
27-Aug-20 18:16 33.438132 -112.010222 0 1115ft 0kts
27-Aug-20 18:17 33.438993 -112.010803 276 1115ft 14kts
27-Aug-20 18:18 33.439006 -112.019797 270 1115ft 37kts
27-Aug-20 18:19 33.439019 -112.025110 269 1115ft 25kts
27-Aug-20 18:20 33.439145 -112.029433 305 1115ft 0kts
27-Aug-20 18:21 33.440858 -112.029162 84 1115ft 14kts
27-Aug-20 18:22 33.441082 -111.980839 91 1608ft 269kts
27-Aug-20 18:23 33.436371 -111.898326 95 7055ft 251kts
27-Aug-20 18:24 33.403461 -111.826959 157 9550ft 269kts
27-Aug-20 18:24 33.343254 -111.798441 187 10979ft 305kts
27-Aug-20 18:26 33.238296 -111.831641 193 13064ft 352kts
27-Aug-20 18:27 33.142189 -111.862929 204 15364ft 369kts
27-Aug-20 18:27 33.067793 -111.916380 209 16979ft 378kts
27-Aug-20 18:28 32.970464 -111.955215 164 17009ft 379kts
27-Aug-20 18:30 32.861173 -111.891581 142 17010ft 375kts
27-Aug-20 18:30 32.790224 -111.831245 143 16999ft 376kts
27-Aug-20 18:31 32.705461 -111.760620 143 16989ft 362kts
27-Aug-20 18:32 32.624511 -111.693277 143 16937ft 354kts
27-Aug-20 18:33 32.543141 -111.625174 138 15534ft 359kts
27-Aug-20 18:34 32.486308 -111.529652 126 14316ft 355kts
27-Aug-20 18:35 32.427508 -111.436856 126 12723ft 348kts
27-Aug-20 18:36 32.370125 -111.345874 126 10603ft 344kts
27-Aug-20 18:37 32.350569 -111.240597 84 8473ft 338kts
27-Aug-20 18:38 32.309405 -111.154779 151 6539ft 329kts
27-Aug-20 18:39 32.243691 -111.089529 135 5897ft 295kts
27-Aug-20 18:40 32.190233 -111.026460 135 4523ft 228kts
27-Aug-20 18:41 32.153208 -110.982924 136 3402ft 151kts
27-Aug-20 18:42 32.124486 -110.949138 136 2634ft 137kts
27-Aug-20 18:43 32.111313 -110.932558 81 2594ft 10kts
27-Aug-20 18:44 32.114637 -110.935159 314 2594ft 29kts
27-Aug-20 18:45 32.118523 -110.937257 33 2594ft 1kts
27-Aug-20 18:46 32.118549 -110.937236 34 2594ft 0kts
27-Aug-20 18:47 32.118549 -110.937236 34 2594ft 0kts
27-Aug-20 18:48 32.118549 -110.937236 34 2594ft 0kts

Navigation Log

Ident Type
Flight plan parsing failed, navigation log unavailable